Latest Coastal Weather Observations for Weipa

IDQ60701

Issued at 4:21 am EST Tuesday 28 March 2017 (issued every 10 minutes, with the page automatically refreshed every 10 minutes)

About coastal observations | Map of coastal stations | Coastal observations for QLD | Marine services | Other Formats
Station Details ID: 027045 Name: WEIPA AERO Lat: -12.68 Lon: 141.92 Height: 17.96 m
Data from the previous 72 hours. | See also: Recent months at Weipa
Date/Time
EST
Temp
°C
Wind Pressure Rain since
9am
mm
Weather Cloud Vis
km
Sea
Height
m
Swell
Dir  Spd
kts
Gust
kts
hPa Trend Height
m
Period
s
Dir
28/04:00am 26.2 CALM 0 1 1006.6 - 0.2 - Partly cloudy 10 - - - -
28/03:30am 26.3 CALM 0 1 1006.7 - 0.2 - Partly cloudy 10 - - - -
28/03:00am 26.3 ENE 1 2 1006.8 - 0.2 - Partly cloudy 10 - - - -
28/02:30am 26.3 ESE 1 2 1007.1 - 0.2 - Partly cloudy 10 - - - -
28/02:00am 26.3 NNE 2 3 1007.1 - 0.2 - Partly cloudy 10 - - - -
28/01:30am 26.4 CALM 0 0 1007.5 - 0.2 - Partly cloudy 10 - - - -
28/01:00am 26.5 CALM 0 0 1007.8 - 0.2 - Partly cloudy 10 - - - -
28/12:30am 26.4 E 1 2 1008.1 - 0.2 - Partly cloudy 10 - - - -
28/12:00am 26.6 CALM 0 1 1008.1 - 0.2 - Cloudy 10 - - - -
 
Date/Time
EST
Temp
°C
Wind Pressure Rain since
9am
mm
Weather Cloud Vis
km
Sea
Height
m
Swell
Dir  Spd
kts
Gust
kts
hPa Trend Height
m
Period
s
Dir
27/11:30pm 26.5 CALM 0 1 1008.6 - 0.2 - Cloudy 10 - - - -
27/11:00pm 26.6 SSE 1 2 1008.7 - 0.2 - Partly cloudy 10 - - - -
27/10:30pm 26.8 CALM 0 2 1008.7 - 0.2 - Partly cloudy 10 - - - -
27/10:00pm 26.8 CALM 0 1 1008.6 - 0.2 - Partly cloudy 10 - - - -
27/09:30pm 26.8 WSW 3 8 1008.6 - 0.2 - Partly cloudy 10 - - - -
27/09:00pm 26.1 WSW 1 3 1008.2 - 0.2 - Partly cloudy 10 - - - -
27/08:30pm 26.2 CALM 0 0 1008.2 - 0.2 - Partly cloudy 10 - - - -
27/08:00pm 26.1 SW 1 5 1008.0 - 0.2 - Partly cloudy 10 - - - -
27/07:30pm 26.6 WSW 4 9 1007.5 - 0.2 - - 10 - - - -
27/07:00pm 26.7 W 3 6 1007.2 - 0.2 - - 10 - - - -
27/06:52pm 26.6 W 3 6 1007.1 - 0.2 - - 10 - - - -
27/06:34pm 26.6 W 3 7 1007.1 - 0.2 - Partly cloudy 6 - - - -
27/06:30pm 26.6 W 4 7 1007.0 - 0.2 - Partly cloudy 9 - - - -
27/06:10pm 26.7 W 4 8 1007.0 - 0.0 - Partly cloudy 10 - - - -
27/06:00pm 26.6 W 4 7 1006.9 - 0.0 - Cloudy 10 - - - -
27/05:34pm 26.6 WNW 5 11 1006.9 - 0.0 - Partly cloudy 10 - - - -
27/05:30pm 26.7 W 6 11 1006.9 - 0.0 - - 10 - - - -
27/05:14pm 26.6 NW 5 8 1006.7 - 0.0 - Partly cloudy 10 - - - -
27/05:00pm 26.5 NW 8 13 1006.7 - 0.0 - - 10 - - - -
27/04:38pm 26.1 NNW 10 14 1006.9 - 0.0 - - 10 - - - -
27/04:30pm 26.1 NW 9 14 1006.8 - 0.0 - - 8 - - - -
27/04:23pm 26.3 NW 8 11 1006.9 - 0.0 - Partly cloudy 8 - - - -
27/04:00pm 26.3 WNW 8 14 1006.9 - 0.0 - Partly cloudy 10 - - - -
27/03:30pm 28.5 NW 7 10 1006.7 - 0.0 - Partly cloudy 10 - - - -
27/03:21pm 28.8 NNW 8 10 1006.8 - 0.0 - Partly cloudy 10 - - - -
27/03:00pm 29.2 NW 5 9 1006.9 - 0.0 - Partly cloudy 10 - - - -
27/02:59pm 29.2 NW 5 9 1007.1 - 0.0 - Partly cloudy 10 - - - -
27/02:30pm 28.7 NW 8 12 1007.5 - 0.0 - Partly cloudy 10 - - - -
27/02:00pm 27.7 NNW 7 11 1007.6 - 0.0 - Partly cloudy 10 - - - -
27/01:30pm 27.5 NNW 7 9 1008.2 - 0.0 - Partly cloudy 10 - - - -
27/01:00pm 28.1 NNW 10 14 1008.5 - 0.0 - Partly cloudy 10 - - - -
27/12:30pm 29.2 NW 8 12 1009.1 - 0.0 - Partly cloudy 10 - - - -
27/12:00pm 28.6 NW 5 9 1009.4 - 0.0 - Mostly clear 10 - - - -
27/11:30am 28.4 NW 6 10 1009.9 - 0.0 - Partly cloudy 10 - - - -
27/11:00am 28.3 NNW 4 7 1010.2 - 0.0 - Partly cloudy 10 - - - -
27/10:30am 28.6 NW 5 8 1010.3 - 0.0 - Partly cloudy 10 - - - -
27/10:01am 28.1 NW 6 9 1010.7 - 0.0 - Partly cloudy 10 - - - -
27/10:00am 28.1 NW 6 9 1010.7 - 0.0 - Cloudy 10 - - - -
27/09:30am 28.4 NW 5 8 1010.5 - 0.0 - Partly cloudy 10 - - - -
27/09:00am 27.4 WSW 2 4 1010.2 - 50.4 - Cloudy 10 - - - -
27/08:30am 26.9 NW 4 5 1010.6 - 50.4 - Partly cloudy 10 - - - -
27/08:00am 26.3 N 3 5 1010.2 - 50.4 - Partly cloudy 10 - - - -
27/07:44am 26.0 NNW 3 5 1010.2 - 50.4 - Partly cloudy 10 - - - -
27/07:30am 25.7 NW 3 5 1010.1 - 50.4 - - 10 - - - -
27/07:00am 25.1 NW 3 4 1009.4 - 50.4 - - 10 - - - -
27/06:51am 25.0 NNW 3 5 1009.2 - 50.4 - Partly cloudy 10 - - - -
27/06:30am 24.8 N 7 10 1008.9 - 50.4 - Cloudy 7 - - - -
27/06:04am 24.9 N 4 7 1008.8 - 50.4 - Partly cloudy 10 - - - -
27/06:00am 24.9 NNE 4 6 1008.5 - 50.4 - Cloudy 10 - - - -
27/05:30am 25.0 N 3 6 1008.7 - 50.4 - Partly cloudy 10 - - - -
27/05:23am 25.0 N 4 6 1008.4 - 50.4 - Partly cloudy 10 - - - -
27/05:10am 24.9 N 5 8 1008.4 - 50.4 - Partly cloudy 10 - - - -
27/05:00am 24.8 NNE 5 8 1008.7 - 50.4 - Partly cloudy 10 - - - -
27/04:30am 24.5 NNE 5 8 1008.4 - 50.2 - Partly cloudy 10 - - - -
27/04:16am 24.4 N 3 5 1008.4 - 50.2 - Partly cloudy 10 - - - -
27/04:00am 24.4 N 3 4 1008.3 - 50.0 - Partly cloudy 4 - - - -
27/03:30am 24.7 E 3 6 1009.0 - 45.6 - Partly cloudy 2 - - - -
27/03:25am 24.7 E 5 6 1009.1 - 44.6 - Partly cloudy 4 - - - -
27/03:06am 24.9 E 5 7 1009.3 - 41.4 - Partly cloudy 0.8 - - - -
27/03:00am 24.9 ESE 4 6 1009.3 - 40.2 - - 0.5 - - - -
27/02:30am 25.1 SSW 3 7 1009.7 - 23.0 - - 7 - - - -
27/02:00am 25.7 SW 2 6 1009.7 - 20.0 - - 4 - - - -
27/01:38am 26.1 ENE 3 8 1009.5 - 18.4 - Partly cloudy 6 - - - -
27/01:30am 26.1 NE 5 8 1009.4 - 17.6 - Partly cloudy 10 - - - -
27/01:13am 26.2 ENE 5 7 1009.8 - 17.6 - Partly cloudy 10 - - - -
27/01:00am 26.2 ENE 6 8 1010.1 - 17.6 - Partly cloudy 6 - - - -
27/12:48am 26.1 E 7 8 1010.3 - 17.2 - Partly cloudy 0.7 - - - -
27/12:30am 26.5 E 4 6 1010.6 - 7.8 - Partly cloudy 2 - - - -
27/12:10am 26.5 ENE 4 6 1010.7 - 4.0 - Partly cloudy 6 - - - -
27/12:03am 26.6 NE 4 6 1010.5 - 3.4 - Partly cloudy 9 - - - -
27/12:00am 26.5 NE 3 5 1010.3 - 3.2 - Cloudy 8 - - - -
 
Date/Time
EST
Temp
°C
Wind Pressure Rain since
9am
mm
Weather Cloud Vis
km
Sea
Height
m
Swell
Dir  Spd
kts
Gust
kts
hPa Trend Height
m
Period
s
Dir
26/11:35pm 26.8 E 2 3 1010.8 - 1.8 - Partly cloudy 6 - - - -
26/11:30pm 26.8 NE 3 5 1010.8 - 1.4 - Partly cloudy 9 - - - -
26/11:15pm 26.7 WNW 5 9 1010.6 - 1.2 - Partly cloudy 6 - - - -
26/11:00pm 26.9 N 3 5 1010.7 - 0.8 - Partly cloudy 10 - - - -
26/10:30pm 27.1 NNE 4 10 1010.5 - 0.8 - Partly cloudy 10 - - - -
26/10:00pm 27.8 NNW 3 5 1010.5 - 0.8 - Partly cloudy 10 - - - -
26/09:30pm 27.4 W 3 7 1009.8 - 0.8 - Partly cloudy 10 - - - -
26/09:00pm 26.9 WNW 2 6 1009.2 - 0.8 - Cloudy 10 - - - -
26/08:30pm 26.7 NNE 2 4 1009.5 - 0.8 - Partly cloudy 10 - - - -
26/08:20pm 26.8 N 4 7 1009.4 - 0.8 - Partly cloudy 10 - - - -
26/08:00pm 27.5 WNW 5 13 1009.7 - 0.6 - Partly cloudy 4 - - - -
26/07:58pm 27.6 WNW 6 13 1009.7 - 0.4 - Partly cloudy 6 - - - -
26/07:30pm 28.5 NW 5 8 1009.1 - 0.0 - Partly cloudy 10 - - - -
26/07:00pm 28.3 WNW 5 7 1008.5 - 0.0 - Partly cloudy 10 - - - -
26/06:30pm 28.8 W 4 7 1008.1 - 0.0 - - 10 - - - -
26/06:00pm 29.1 WNW 8 12 1007.5 - 0.0 - Partly cloudy 10 - - - -
26/05:30pm 29.9 W 8 13 1007.0 - 0.0 - - 10 - - - -
26/05:00pm 30.4 W 7 11 1006.8 - 0.0 - - 10 - - - -
26/04:30pm 30.8 W 8 13 1006.6 - 0.0 - - 10 - - - -
26/04:00pm 31.0 W 7 14 1006.5 - 0.0 - - 10 - - - -
26/03:30pm 31.2 W 8 13 1006.6 - 0.0 - - 10 - - - -
26/03:00pm 31.2 W 8 12 1006.3 - 0.0 - - 10 - - - -
26/02:30pm 31.0 W 7 13 1006.9 - 0.0 - - 10 - - - -
26/02:00pm 31.3 WNW 8 11 1007.5 - 0.0 - - 10 - - - -
26/01:30pm 30.7 W 6 9 1007.9 - 0.0 - - 10 - - - -
26/01:00pm 30.7 W 6 10 1008.3 - 0.0 - - 10 - - - -
26/12:30pm 30.7 W 5 9 1008.7 - 0.0 - - 10 - - - -
26/12:04pm 30.8 WSW 3 6 1009.3 - 0.0 - Partly cloudy 10 - - - -
26/12:00pm 30.5 WSW 3 5 1009.2 - 0.0 - Mostly clear 10 - - - -
26/11:45am 30.5 ENE 1 3 1009.5 - 0.0 - Partly cloudy 3 - - - -
26/11:30am 30.1 ESE 3 6 1009.7 - 0.0 - Partly cloudy 10 - - - -
26/11:00am 29.8 S 2 5 1010.1 - 0.0 - Partly cloudy 10 - - - -
26/10:30am 29.0 S 3 6 1010.4 - 0.0 - - 10 - - - -
26/10:00am 28.6 SW 3 6 1010.7 - 0.0 - Partly cloudy 10 - - - -
26/09:30am 28.5 CALM 0 3 1011.0 - 0.0 - - 10 - - - -
26/09:00am 27.5 CALM 0 3 1010.4 - 22.4 - - 10 - - - -
26/08:30am 25.9 CALM 0 1 1010.4 - 22.4 - - 10 - - - -
26/08:00am 25.3 ESE 4 5 1010.0 - 22.4 - - 10 - - - -
26/07:30am 24.9 N 2 3 1009.8 - 22.4 - - 10 - - - -
26/07:00am 24.8 CALM 0 1 1009.7 - 22.4 - - 10 - - - -
26/06:30am 24.7 ENE 1 3 1009.3 - 22.4 - - 10 - - - -
26/06:00am 24.7 ESE 2 3 1008.8 - 22.4 - Mostly clear 10 - - - -
26/05:30am 24.6 ESE 1 3 1008.7 - 22.4 - - 10 - - - -
26/05:00am 24.6 SSW 1 3 1008.1 - 22.4 - Partly cloudy 10 - - - -
26/04:30am 24.7 CALM 0 2 1008.0 - 22.4 - - 10 - - - -
26/04:00am 24.6 ESE 2 4 1007.9 - 22.4 - Partly cloudy 10 - - - -
26/03:30am 24.5 E 5 7 1008.5 - 22.4 - Partly cloudy 10 - - - -
26/03:00am 24.5 ESE 3 5 1008.4 - 22.4 - Cloudy 10 - - - -
26/02:30am 24.5 ESE 5 6 1008.9 - 21.8 - Partly cloudy 10 - - - -
26/02:00am 24.5 S 2 7 1009.1 - 21.4 - Partly cloudy 10 - - - -
26/01:30am 24.5 NNE 2 3 1009.5 - 21.2 - Partly cloudy 10 - - - -
26/01:00am 24.4 SSW 2 4 1010.0 - 21.2 - Partly cloudy 10 - - - -
26/12:40am 24.8 WNW 4 6 1010.2 - 21.0 - - 10 - - - -
26/12:30am 24.9 WNW 4 7 1010.4 - 21.0 - Partly cloudy 6 - - - -
26/12:16am 25.0 W 6 10 1010.7 - 19.4 - Partly cloudy 5 - - - -
26/12:00am 25.5 WNW 5 7 1010.4 - 18.0 - Mostly cloudy 10 - - - -
 
Date/Time
EST
Temp
°C
Wind Pressure Rain since
9am
mm
Weather Cloud Vis
km
Sea
Height
m
Swell
Dir  Spd
kts
Gust
kts
hPa Trend Height
m
Period
s
Dir
25/11:36pm 25.4 SSE 1 4 1010.1 - 18.0 - Partly cloudy 10 - - - -
25/11:30pm 25.3 SSE 4 8 1010.2 - 18.0 - Partly cloudy 10 - - - -
25/11:05pm 25.9 SSW 7 15 1010.7 - 15.0 - Partly cloudy 6 - - - -
25/11:00pm 26.6 SW 6 15 1010.7 - 14.2 - Partly cloudy 10 - - - -
25/10:30pm 27.3 E 1 2 1010.1 - 14.2 - Partly cloudy 10 - - - -
25/10:00pm 27.4 CALM 0 2 1009.8 - 14.2 - Partly cloudy 10 - - - -
25/09:30pm 27.8 CALM 0 1 1009.1 - 14.2 - Partly cloudy 10 - - - -
25/09:00pm 27.9 NNW 3 4 1008.2 - 14.2 - - 10 - - - -
25/08:30pm 28.5 WSW 2 6 1008.3 - 14.2 - - 10 - - - -
25/08:00pm 28.7 WSW 3 8 1008.1 - 14.2 - Partly cloudy 10 - - - -
25/07:30pm 28.6 W 2 4 1007.6 - 14.2 - - 10 - - - -
25/07:00pm 28.8 W 4 9 1007.1 - 14.2 - - 10 - - - -
25/06:30pm 29.4 W 5 10 1006.8 - 14.2 - - 10 - - - -
25/06:00pm 30.1 W 6 11 1006.5 - 14.2 - Mostly clear 10 - - - -
25/05:30pm 30.7 W 7 13 1006.7 - 14.2 - Partly cloudy 10 - - - -
25/05:00pm 30.7 W 7 13 1006.4 - 14.2 - - 10 - - - -
25/04:30pm 31.2 W 7 13 1006.1 - 14.2 - - 10 - - - -
25/04:00pm 31.2 W 7 13 1006.1 - 14.2 - - 10 - - - -
25/03:30pm 31.0 W 8 13 1006.2 - 14.2 - - 10 - - - -
25/03:00pm 30.3 W 6 10 1006.0 - 14.2 - - 10 - - - -
25/02:30pm 30.5 W 7 13 1006.5 - 14.2 - - 10 - - - -
25/02:00pm 30.3 W 6 11 1006.9 - 14.2 - - 10 - - - -
25/01:30pm 30.1 W 5 10 1007.3 - 14.2 - - 10 - - - -
25/01:00pm 30.3 W 6 10 1008.0 - 14.2 - - 10 - - - -
25/12:30pm 29.9 W 4 8 1008.6 - 14.0 - - 10 - - - -
25/12:00pm 28.8 W 4 6 1008.9 - 14.0 - Partly cloudy 10 - - - -
25/11:56am 28.6 WNW 4 6 1009.2 - 14.0 - Partly cloudy 10 - - - -
25/11:34am 27.0 WNW 7 16 1009.8 - 13.8 - Partly cloudy 6 - - - -
25/11:30am 27.1 WNW 9 16 1009.8 - 13.2 - Partly cloudy 10 - - - -
25/11:00am 26.8 ENE 2 5 1010.2 - 13.2 - Partly cloudy 10 - - - -
25/10:54am 26.0 ENE 5 7 1010.3 - 13.2 - Partly cloudy 10 - - - -
25/10:30am 26.0 N 6 14 1010.6 - 10.6 - Partly cloudy 0.8 - - - -
25/10:18am 26.2 NW 12 15 1010.5 - 5.0 - Partly cloudy 4 - - - -
25/10:00am 27.8 W 3 6 1010.3 - 3.2 - Partly cloudy 10 - - - -
25/09:45am 27.7 SSE 2 4 1010.2 - 3.2 - Partly cloudy 10 - - - -
25/09:30am 27.5 SSE 2 7 1010.2 - 3.2 - Partly cloudy 2 - - - -
25/09:22am 28.2 SW 4 8 1010.2 - 2.2 - Partly cloudy 6 - - - -
25/09:00am 29.5 NNW 3 7 1009.5 - 0.0 - - 10 - - - -
25/08:30am 28.8 NE 2 4 1009.3 - 0.0 - - 10 - - - -
25/08:00am 27.5 ENE 3 4 1008.9 - 0.0 - - 10 - - - -
25/07:30am 26.5 NE 1 3 1008.4 - 0.0 - Partly cloudy 10 - - - -
25/07:00am 25.7 CALM 0 0 1008.2 - 0.0 - Partly cloudy 10 - - - -
25/06:30am 25.5 CALM 0 0 1008.0 - 0.0 - Partly cloudy 10 - - - -
25/06:00am 25.5 CALM 0 0 1007.6 - 0.0 - - 10 - - - -
25/05:30am 25.7 W 1 2 1007.6 - 0.0 - - 10 - - - -
25/05:00am 25.8 SW 1 3 1007.5 - 0.0 - - - - - - -
25/04:30am 26.0 E 1 3 1007.3 - 0.0 - - - - - - -

Other Formats:

Comma delimited format used in spreadsheet applications
http://www.bom.gov.au/fwo/IDQ60701/IDQ60701.94170.axf

JavaScript Object Notation format (JSON) in row-major order
http://www.bom.gov.au/fwo/IDQ60701/IDQ60701.94170.json